sensor_id;sensor_type;location;lat;lon;timestamp;pressure;altitude;pressure_sealevel;temperature;humidity
9225;BME280;4647;48.072;11.616;2024-02-26T00:01:59;93613.09;;;0.17;98.31
9225;BME280;4647;48.072;11.616;2024-02-26T00:04:28;93607.00;;;0.16;97.68
9225;BME280;4647;48.072;11.616;2024-02-26T00:06:56;93600.56;;;0.10;98.08
9225;BME280;4647;48.072;11.616;2024-02-26T00:09:27;93597.91;;;0.10;98.17
9225;BME280;4647;48.072;11.616;2024-02-26T00:11:56;93600.91;;;0.19;97.63
9225;BME280;4647;48.072;11.616;2024-02-26T00:14:24;93597.84;;;0.35;97.25
9225;BME280;4647;48.072;11.616;2024-02-26T00:16:53;93599.75;;;0.31;96.64
9225;BME280;4647;48.072;11.616;2024-02-26T00:19:21;93608.13;;;0.26;96.63
9225;BME280;4647;48.072;11.616;2024-02-26T00:21:49;93600.13;;;0.29;96.69
9225;BME280;4647;48.072;11.616;2024-02-26T00:24:19;93600.53;;;0.28;96.97
9225;BME280;4647;48.072;11.616;2024-02-26T00:26:50;93605.78;;;0.53;95.85
9225;BME280;4647;48.072;11.616;2024-02-26T00:29:20;93598.56;;;0.43;96.00
9225;BME280;4647;48.072;11.616;2024-02-26T00:31:48;93597.03;;;0.45;95.77
9225;BME280;4647;48.072;11.616;2024-02-26T00:34:17;93597.03;;;0.49;95.13
9225;BME280;4647;48.072;11.616;2024-02-26T00:36:45;93598.53;;;0.46;95.57
9225;BME280;4647;48.072;11.616;2024-02-26T00:39:14;93590.13;;;0.62;94.05
9225;BME280;4647;48.072;11.616;2024-02-26T00:41:42;93577.63;;;0.52;94.43
9225;BME280;4647;48.072;11.616;2024-02-26T00:44:13;93588.63;;;0.57;93.92
9225;BME280;4647;48.072;11.616;2024-02-26T00:46:41;93583.69;;;0.52;94.18
9225;BME280;4647;48.072;11.616;2024-02-26T00:49:10;93582.97;;;0.41;94.50
9225;BME280;4647;48.072;11.616;2024-02-26T00:51:38;93579.56;;;0.34;94.82
9225;BME280;4647;48.072;11.616;2024-02-26T00:54:07;93588.28;;;0.41;94.16
9225;BME280;4647;48.072;11.616;2024-02-26T00:56:35;93579.97;;;0.32;94.32
9225;BME280;4647;48.072;11.616;2024-02-26T00:59:03;93581.44;;;0.40;94.09
9225;BME280;4647;48.072;11.616;2024-02-26T01:01:34;93589.13;;;0.24;94.33
9225;BME280;4647;48.072;11.616;2024-02-26T01:04:03;93585.69;;;0.20;94.39
9225;BME280;4647;48.072;11.616;2024-02-26T01:06:31;93585.63;;;0.45;93.46
9225;BME280;4647;48.072;11.616;2024-02-26T01:09:00;93583.03;;;0.27;94.16
9225;BME280;4647;48.072;11.616;2024-02-26T01:11:29;93587.59;;;0.19;94.58
9225;BME280;4647;48.072;11.616;2024-02-26T01:13:57;93578.81;;;0.29;94.23
9225;BME280;4647;48.072;11.616;2024-02-26T01:16:25;93579.22;;;0.24;94.35
9225;BME280;4647;48.072;11.616;2024-02-26T01:18:57;93573.88;;;0.28;93.99
9225;BME280;4647;48.072;11.616;2024-02-26T01:21:25;93572.34;;;0.23;93.51
9225;BME280;4647;48.072;11.616;2024-02-26T01:23:54;93575.81;;;0.13;93.91
9225;BME280;4647;48.072;11.616;2024-02-26T01:26:23;93578.88;;;-0.03;94.25
9225;BME280;4647;48.072;11.616;2024-02-26T01:28:51;93571.28;;;-0.01;94.53
9225;BME280;4647;48.072;11.616;2024-02-26T01:31:20;93575.06;;;0.13;94.24
9225;BME280;4647;48.072;11.616;2024-02-26T01:33:48;93567.09;;;0.06;94.23
9225;BME280;4647;48.072;11.616;2024-02-26T01:36:19;93569.34;;;0.14;94.23
9225;BME280;4647;48.072;11.616;2024-02-26T01:38:48;93566.69;;;0.18;93.27
9225;BME280;4647;48.072;11.616;2024-02-26T01:41:16;93573.94;;;0.07;94.17
9225;BME280;4647;48.072;11.616;2024-02-26T01:43:45;93568.25;;;0.05;94.39
9225;BME280;4647;48.072;11.616;2024-02-26T01:46:14;93576.25;;;-0.10;94.60
9225;BME280;4647;48.072;11.616;2024-02-26T01:48:44;93579.66;;;0.09;93.97
9225;BME280;4647;48.072;11.616;2024-02-26T01:51:15;93570.91;;;-0.03;93.99
9225;BME280;4647;48.072;11.616;2024-02-26T01:53:47;93574.00;;;-0.18;94.60
9225;BME280;4647;48.072;11.616;2024-02-26T01:56:17;93562.22;;;-0.21;94.68
9225;BME280;4647;48.072;11.616;2024-02-26T01:58:48;93568.28;;;-0.17;95.16
9225;BME280;4647;48.072;11.616;2024-02-26T02:01:18;93570.16;;;-0.03;94.45
9225;BME280;4647;48.072;11.616;2024-02-26T02:03:47;93559.50;;;-0.07;94.53
9225;BME280;4647;48.072;11.616;2024-02-26T02:06:15;93553.03;;;-0.06;94.47
9225;BME280;4647;48.072;11.616;2024-02-26T02:08:47;93558.34;;;-0.02;94.46
9225;BME280;4647;48.072;11.616;2024-02-26T02:11:16;93549.63;;;-0.06;94.30
9225;BME280;4647;48.072;11.616;2024-02-26T02:13:45;93550.78;;;0.00;94.46
9225;BME280;4647;48.072;11.616;2024-02-26T02:16:13;93545.09;;;-0.13;94.15
9225;BME280;4647;48.072;11.616;2024-02-26T02:18:42;93546.63;;;-0.22;94.29
9225;BME280;4647;48.072;11.616;2024-02-26T02:21:13;93549.66;;;-0.17;94.20
9225;BME280;4647;48.072;11.616;2024-02-26T02:23:41;93545.47;;;-0.18;93.98
9225;BME280;4647;48.072;11.616;2024-02-26T02:26:12;93540.16;;;-0.28;94.37
9225;BME280;4647;48.072;11.616;2024-02-26T02:28:40;93541.66;;;-0.24;94.04
9225;BME280;4647;48.072;11.616;2024-02-26T02:31:09;93544.34;;;-0.31;94.44
9225;BME280;4647;48.072;11.616;2024-02-26T02:33:38;93532.97;;;-0.46;94.90
9225;BME280;4647;48.072;11.616;2024-02-26T02:36:07;93537.13;;;-0.27;95.26
9225;BME280;4647;48.072;11.616;2024-02-26T02:38:48;93533.72;;;-0.31;95.20
9225;BME280;4647;48.072;11.616;2024-02-26T02:41:17;93538.22;;;-0.07;94.05
9225;BME280;4647;48.072;11.616;2024-02-26T02:43:47;93537.47;;;-0.14;94.42
9225;BME280;4647;48.072;11.616;2024-02-26T02:46:15;93537.47;;;-0.14;94.41
9225;BME280;4647;48.072;11.616;2024-02-26T02:48:43;93533.25;;;0.10;93.63
9225;BME280;4647;48.072;11.616;2024-02-26T02:51:12;93542.78;;;-0.07;93.40
9225;BME280;4647;48.072;11.616;2024-02-26T02:53:43;93543.22;;;-0.19;93.61
9225;BME280;4647;48.072;11.616;2024-02-26T02:56:11;93540.94;;;-0.35;94.14
9225;BME280;4647;48.072;11.616;2024-02-26T02:58:40;93547.00;;;-0.31;94.28
9225;BME280;4647;48.072;11.616;2024-02-26T03:01:08;93547.00;;;-0.31;93.97
9225;BME280;4647;48.072;11.616;2024-02-26T03:03:36;93540.91;;;-0.24;93.83
9225;BME280;4647;48.072;11.616;2024-02-26T03:06:05;93541.69;;;-0.31;93.81
9225;BME280;4647;48.072;11.616;2024-02-26T03:08:33;93535.59;;;-0.28;93.93
9225;BME280;4647;48.072;11.616;2024-02-26T03:11:06;93538.59;;;-0.08;93.02
9225;BME280;4647;48.072;11.616;2024-02-26T03:13:34;93537.50;;;-0.25;93.65
9225;BME280;4647;48.072;11.616;2024-02-26T03:16:04;93538.63;;;-0.26;93.82
9225;BME280;4647;48.072;11.616;2024-02-26T03:18:33;93529.88;;;-0.12;93.20
9225;BME280;4647;48.072;11.616;2024-02-26T03:21:02;93530.94;;;0.12;92.21
9225;BME280;4647;48.072;11.616;2024-02-26T03:23:30;93527.94;;;-0.01;93.34
9225;BME280;4647;48.072;11.616;2024-02-26T03:26:02;93530.97;;;0.05;93.36
9225;BME280;4647;48.072;11.616;2024-02-26T03:28:33;93526.41;;;0.09;93.49
9225;BME280;4647;48.072;11.616;2024-02-26T03:31:01;93520.28;;;0.12;93.32
9225;BME280;4647;48.072;11.616;2024-02-26T03:33:30;93530.56;;;0.13;93.72
9225;BME280;4647;48.072;11.616;2024-02-26T03:35:58;93528.69;;;0.07;93.93
9225;BME280;4647;48.072;11.616;2024-02-26T03:38:28;93538.53;;;0.17;93.49
9225;BME280;4647;48.072;11.616;2024-02-26T03:40:57;93539.31;;;0.14;93.91
9225;BME280;4647;48.072;11.616;2024-02-26T03:43:25;93537.00;;;0.26;92.51
9225;BME280;4647;48.072;11.616;2024-02-26T03:45:56;93538.50;;;0.27;92.46
9225;BME280;4647;48.072;11.616;2024-02-26T03:48:25;93538.09;;;0.36;92.18
9225;BME280;4647;48.072;11.616;2024-02-26T03:50:54;93542.69;;;0.28;91.92
9225;BME280;4647;48.072;11.616;2024-02-26T03:53:22;93528.63;;;0.28;91.88
9225;BME280;4647;48.072;11.616;2024-02-26T03:55:50;93530.91;;;0.19;91.10
9225;BME280;4647;48.072;11.616;2024-02-26T03:58:20;93528.63;;;0.21;90.51
9225;BME280;4647;48.072;11.616;2024-02-26T04:00:48;93532.03;;;0.21;90.63
9225;BME280;4647;48.072;11.616;2024-02-26T04:03:19;93522.53;;;0.20;90.34
9225;BME280;4647;48.072;11.616;2024-02-26T04:05:47;93526.38;;;0.12;90.57
9225;BME280;4647;48.072;11.616;2024-02-26T04:08:16;93524.44;;;0.20;90.22
9225;BME280;4647;48.072;11.616;2024-02-26T04:10:44;93523.34;;;0.10;90.56
9225;BME280;4647;48.072;11.616;2024-02-26T04:13:13;93530.59;;;0.03;90.33
9225;BME280;4647;48.072;11.616;2024-02-26T04:15:41;93529.03;;;0.12;89.97
9225;BME280;4647;48.072;11.616;2024-02-26T04:18:09;93524.06;;;0.21;89.40
9225;BME280;4647;48.072;11.616;2024-02-26T04:20:40;93528.63;;;0.21;89.74
9225;BME280;4647;48.072;11.616;2024-02-26T04:23:09;93529.03;;;0.16;89.77
9225;BME280;4647;48.072;11.616;2024-02-26T04:25:37;93527.16;;;0.09;89.70
9225;BME280;4647;48.072;11.616;2024-02-26T04:28:05;93532.88;;;0.08;90.14
9225;BME280;4647;48.072;11.616;2024-02-26T04:30:34;93532.09;;;0.07;90.10
9225;BME280;4647;48.072;11.616;2024-02-26T04:33:02;93535.91;;;0.06;90.43
9225;BME280;4647;48.072;11.616;2024-02-26T04:35:31;93537.03;;;0.12;90.20
9225;BME280;4647;48.072;11.616;2024-02-26T04:38:03;93540.09;;;0.07;90.22
9225;BME280;4647;48.072;11.616;2024-02-26T04:40:31;93536.31;;;0.05;90.16
9225;BME280;4647;48.072;11.616;2024-02-26T04:43:00;93537.06;;;-0.02;90.34
9225;BME280;4647;48.072;11.616;2024-02-26T04:45:28;93538.97;;;0.05;89.74
9225;BME280;4647;48.072;11.616;2024-02-26T04:47:57;93530.22;;;-0.07;89.48
9225;BME280;4647;48.072;11.616;2024-02-26T04:50:25;93534.78;;;-0.04;89.69
9225;BME280;4647;48.072;11.616;2024-02-26T04:52:53;93537.09;;;-0.09;90.19
9225;BME280;4647;48.072;11.616;2024-02-26T04:55:24;93539.38;;;-0.15;90.27
9225;BME280;4647;48.072;11.616;2024-02-26T04:57:53;93532.91;;;-0.14;89.86
9225;BME280;4647;48.072;11.616;2024-02-26T05:00:21;93531.78;;;-0.16;89.76
9225;BME280;4647;48.072;11.616;2024-02-26T05:02:49;93529.88;;;-0.16;90.04
9225;BME280;4647;48.072;11.616;2024-02-26T05:05:18;93529.13;;;-0.13;90.42
9225;BME280;4647;48.072;11.616;2024-02-26T05:07:46;93528.72;;;-0.11;90.47
9225;BME280;4647;48.072;11.616;2024-02-26T05:10:15;93525.28;;;-0.05;90.05
9225;BME280;4647;48.072;11.616;2024-02-26T05:12:46;93516.16;;;0.00;89.92
9225;BME280;4647;48.072;11.616;2024-02-26T05:15:14;93519.59;;;0.01;90.23
9225;BME280;4647;48.072;11.616;2024-02-26T05:17:44;93519.56;;;0.04;90.12
9225;BME280;4647;48.072;11.616;2024-02-26T05:20:12;93519.94;;;-0.01;90.42
9225;BME280;4647;48.072;11.616;2024-02-26T05:22:41;93533.28;;;0.03;90.35
9225;BME280;4647;48.072;11.616;2024-02-26T05:25:09;93535.56;;;0.01;90.58
9225;BME280;4647;48.072;11.616;2024-02-26T05:27:37;93540.09;;;0.04;90.49
9225;BME280;4647;48.072;11.616;2024-02-26T05:30:10;93540.44;;;0.13;90.22
9225;BME280;4647;48.072;11.616;2024-02-26T05:32:38;93539.72;;;0.09;90.17
9225;BME280;4647;48.072;11.616;2024-02-26T05:35:07;93545.03;;;0.09;90.01
9225;BME280;4647;48.072;11.616;2024-02-26T05:37:35;93538.59;;;0.03;89.70
9225;BME280;4647;48.072;11.616;2024-02-26T05:40:05;93535.94;;;0.03;89.75
9225;BME280;4647;48.072;11.616;2024-02-26T05:42:34;93534.72;;;0.18;89.93
9225;BME280;4647;48.072;11.616;2024-02-26T05:45:03;93544.22;;;0.29;89.26
9225;BME280;4647;48.072;11.616;2024-02-26T05:47:35;93545.34;;;0.28;89.57
9225;BME280;4647;48.072;11.616;2024-02-26T05:50:08;93549.94;;;0.21;89.97
9225;BME280;4647;48.072;11.616;2024-02-26T05:52:37;93554.88;;;0.26;90.03
9225;BME280;4647;48.072;11.616;2024-02-26T05:55:06;93559.81;;;0.31;90.41
9225;BME280;4647;48.072;11.616;2024-02-26T05:57:36;93559.75;;;0.42;90.60
9225;BME280;4647;48.072;11.616;2024-02-26T06:00:05;93555.09;;;0.60;90.48
9225;BME280;4647;48.072;11.616;2024-02-26T06:02:37;93561.13;;;0.75;89.30
9225;BME280;4647;48.072;11.616;2024-02-26T06:05:06;93570.97;;;0.85;88.56
9225;BME280;4647;48.072;11.616;2024-02-26T06:07:34;93560.63;;;0.94;88.04
9225;BME280;4647;48.072;11.616;2024-02-26T06:10:03;93566.28;;;1.07;87.54
9225;BME280;4647;48.072;11.616;2024-02-26T06:12:35;93568.91;;;1.10;86.80
9225;BME280;4647;48.072;11.616;2024-02-26T06:15:04;93566.56;;;1.23;87.70
9225;BME280;4647;48.072;11.616;2024-02-26T06:17:32;93576.72;;;1.42;87.08
9225;BME280;4647;48.072;11.616;2024-02-26T06:20:04;93580.03;;;1.57;86.53
9225;BME280;4647;48.072;11.616;2024-02-26T06:22:37;93582.28;;;1.62;85.49
9225;BME280;4647;48.072;11.616;2024-02-26T06:25:06;93585.69;;;1.66;85.05
9225;BME280;4647;48.072;11.616;2024-02-26T06:27:34;93587.88;;;1.78;84.83
9225;BME280;4647;48.072;11.616;2024-02-26T06:30:04;93592.34;;;1.89;84.64
9225;BME280;4647;48.072;11.616;2024-02-26T06:32:34;93592.66;;;1.98;82.77
9225;BME280;4647;48.072;11.616;2024-02-26T06:35:05;93595.56;;;2.14;82.68
9225;BME280;4647;48.072;11.616;2024-02-26T06:37:37;93596.53;;;2.31;82.16
9225;BME280;4647;48.072;11.616;2024-02-26T06:40:07;93610.09;;;2.47;81.47
9225;BME280;4647;48.072;11.616;2024-02-26T06:42:35;93616.06;;;2.58;80.72
9225;BME280;4647;48.072;11.616;2024-02-26T06:45:05;93611.06;;;2.64;80.50
9225;BME280;4647;48.072;11.616;2024-02-26T06:47:33;93607.50;;;2.74;79.78
9225;BME280;4647;48.072;11.616;2024-02-26T06:50:05;93606.53;;;2.91;79.07
9225;BME280;4647;48.072;11.616;2024-02-26T06:52:33;93615.88;;;3.06;78.52
9225;BME280;4647;48.072;11.616;2024-02-26T06:55:02;93625.91;;;3.29;77.57
9225;BME280;4647;48.072;11.616;2024-02-26T06:57:33;93628.09;;;3.38;77.01
9225;BME280;4647;48.072;11.616;2024-02-26T07:00:02;93628.75;;;3.46;76.54
9225;BME280;4647;48.072;11.616;2024-02-26T07:02:31;93628.16;;;3.61;76.32
9225;BME280;4647;48.072;11.616;2024-02-26T07:04:59;93624.53;;;3.72;75.25
9225;BME280;4647;48.072;11.616;2024-02-26T07:07:31;93619.81;;;3.83;75.28
9225;BME280;4647;48.072;11.616;2024-02-26T07:09:59;93626.56;;;3.91;74.78
9225;BME280;4647;48.072;11.616;2024-02-26T07:12:29;93632.66;;;4.15;74.51
9225;BME280;4647;48.072;11.616;2024-02-26T07:14:57;93631.91;;;4.14;73.70
9225;BME280;4647;48.072;11.616;2024-02-26T07:17:26;93622.00;;;4.35;73.22
9225;BME280;4647;48.072;11.616;2024-02-26T07:19:54;93638.72;;;4.42;72.45
9225;BME280;4647;48.072;11.616;2024-02-26T07:22:22;93641.22;;;4.53;71.71
9225;BME280;4647;48.072;11.616;2024-02-26T07:24:53;93636.88;;;4.59;70.34
9225;BME280;4647;48.072;11.616;2024-02-26T07:27:22;93630.75;;;4.58;70.07
9225;BME280;4647;48.072;11.616;2024-02-26T07:29:50;93627.16;;;4.45;70.97
9225;BME280;4647;48.072;11.616;2024-02-26T07:32:18;93630.94;;;4.48;71.20
9225;BME280;4647;48.072;11.616;2024-02-26T07:34:44;93628.75;;;4.43;72.19
9225;BME280;4647;48.072;11.616;2024-02-26T07:37:12;93623.44;;;4.39;72.33
9225;BME280;4647;48.072;11.616;2024-02-26T07:39:41;93630.16;;;4.51;71.52
9225;BME280;4647;48.072;11.616;2024-02-26T07:42:12;93637.44;;;4.70;70.93
9225;BME280;4647;48.072;11.616;2024-02-26T07:44:40;93645.50;;;4.90;70.39
9225;BME280;4647;48.072;11.616;2024-02-26T07:47:09;93654.38;;;5.07;69.58
9225;BME280;4647;48.072;11.616;2024-02-26T07:49:38;93650.84;;;5.30;69.26
9225;BME280;4647;48.072;11.616;2024-02-26T07:52:07;93661.56;;;5.49;70.18
9225;BME280;4647;48.072;11.616;2024-02-26T07:54:35;93676.34;;;5.58;69.44
9225;BME280;4647;48.072;11.616;2024-02-26T07:57:04;93671.31;;;5.60;69.05
9225;BME280;4647;48.072;11.616;2024-02-26T07:59:35;93674.88;;;5.73;68.96
9225;BME280;4647;48.072;11.616;2024-02-26T08:02:04;93680.09;;;5.80;68.58
9225;BME280;4647;48.072;11.616;2024-02-26T08:04:33;93671.94;;;5.83;68.97
9225;BME280;4647;48.072;11.616;2024-02-26T08:07:01;93672.50;;;5.95;68.63
9225;BME280;4647;48.072;11.616;2024-02-26T08:09:29;93665.97;;;5.76;68.81
9225;BME280;4647;48.072;11.616;2024-02-26T08:11:59;93666.03;;;5.56;69.75
9225;BME280;4647;48.072;11.616;2024-02-26T08:14:27;93665.59;;;5.58;69.91
9225;BME280;4647;48.072;11.616;2024-02-26T08:16:58;93655.44;;;5.65;69.58
9225;BME280;4647;48.072;11.616;2024-02-26T08:19:28;93659.66;;;5.66;69.54
9225;BME280;4647;48.072;11.616;2024-02-26T08:21:56;93660.06;;;5.65;69.82
9225;BME280;4647;48.072;11.616;2024-02-26T08:24:25;93654.28;;;5.66;69.30
9225;BME280;4647;48.072;11.616;2024-02-26T08:26:53;93664.06;;;5.76;69.35
9225;BME280;4647;48.072;11.616;2024-02-26T08:29:22;93657.13;;;6.11;68.31
9225;BME280;4647;48.072;11.616;2024-02-26T08:31:50;93666.50;;;6.52;67.45
9225;BME280;4647;48.072;11.616;2024-02-26T08:34:21;93667.59;;;6.71;65.76
9225;BME280;4647;48.072;11.616;2024-02-26T08:36:49;93671.38;;;7.02;65.27
9225;BME280;4647;48.072;11.616;2024-02-26T08:39:18;93675.94;;;7.18;64.77
9225;BME280;4647;48.072;11.616;2024-02-26T08:41:46;93673.59;;;7.20;65.81
9225;BME280;4647;48.072;11.616;2024-02-26T08:44:17;93673.81;;;7.26;66.50
9225;BME280;4647;48.072;11.616;2024-02-26T08:46:45;93679.25;;;7.51;65.69
9225;BME280;4647;48.072;11.616;2024-02-26T08:49:14;93677.78;;;7.76;64.60
9225;BME280;4647;48.072;11.616;2024-02-26T08:51:44;93689.22;;;8.30;62.76
9225;BME280;4647;48.072;11.616;2024-02-26T08:54:13;93679.28;;;8.27;62.97
9225;BME280;4647;48.072;11.616;2024-02-26T08:56:41;93689.97;;;8.31;62.07
9225;BME280;4647;48.072;11.616;2024-02-26T08:59:09;93686.19;;;8.41;61.21
9225;BME280;4647;48.072;11.616;2024-02-26T09:01:38;93695.81;;;8.55;61.67
9225;BME280;4647;48.072;11.616;2024-02-26T09:04:06;93690.94;;;8.50;61.87
9225;BME280;4647;48.072;11.616;2024-02-26T09:06:35;93689.22;;;8.56;61.49
9225;BME280;4647;48.072;11.616;2024-02-26T09:09:06;93686.47;;;8.69;61.03
9225;BME280;4647;48.072;11.616;2024-02-26T09:11:34;93689.97;;;8.56;60.56
9225;BME280;4647;48.072;11.616;2024-02-26T09:14:03;93694.81;;;8.96;60.19
9225;BME280;4647;48.072;11.616;2024-02-26T09:16:31;93686.78;;;8.71;59.33
9225;BME280;4647;48.072;11.616;2024-02-26T09:19:01;93693.31;;;8.48;60.50
9225;BME280;4647;48.072;11.616;2024-02-26T09:21:30;93687.03;;;8.64;60.77
9225;BME280;4647;48.072;11.616;2024-02-26T09:23:59;93690.78;;;8.66;60.93
9225;BME280;4647;48.072;11.616;2024-02-26T09:26:30;93688.34;;;8.46;61.73
9225;BME280;4647;48.072;11.616;2024-02-26T09:28:58;93686.63;;;8.52;62.68
9225;BME280;4647;48.072;11.616;2024-02-26T09:31:26;93685.94;;;8.96;61.53
9225;BME280;4647;48.072;11.616;2024-02-26T09:33:55;93684.53;;;9.04;61.45
9225;BME280;4647;48.072;11.616;2024-02-26T09:36:23;93689.31;;;9.21;61.40
9225;BME280;4647;48.072;11.616;2024-02-26T09:38:51;93686.44;;;9.38;60.80
9225;BME280;4647;48.072;11.616;2024-02-26T09:41:20;93685.75;;;8.90;59.65
9225;BME280;4647;48.072;11.616;2024-02-26T09:43:52;93693.72;;;9.06;60.42
9225;BME280;4647;48.072;11.616;2024-02-26T09:46:25;93686.72;;;9.18;59.44
9225;BME280;4647;48.072;11.616;2024-02-26T09:48:53;93695.09;;;9.11;59.38
9225;BME280;4647;48.072;11.616;2024-02-26T09:51:22;93699.56;;;9.27;60.67
9225;BME280;4647;48.072;11.616;2024-02-26T09:53:52;93698.16;;;9.22;60.73
9225;BME280;4647;48.072;11.616;2024-02-26T09:56:23;93695.59;;;9.18;61.75
9225;BME280;4647;48.072;11.616;2024-02-26T09:58:56;93693.63;;;9.19;62.08
9225;BME280;4647;48.072;11.616;2024-02-26T10:01:25;93690.56;;;9.08;61.37
9225;BME280;4647;48.072;11.616;2024-02-26T10:03:57;93680.19;;;9.06;60.93
9225;BME280;4647;48.072;11.616;2024-02-26T10:06:26;93683.59;;;9.19;61.02
9225;BME280;4647;48.072;11.616;2024-02-26T10:08:55;93684.91;;;9.37;61.11
9225;BME280;4647;48.072;11.616;2024-02-26T10:11:25;93675.34;;;9.45;60.42
9225;BME280;4647;48.072;11.616;2024-02-26T10:13:56;93674.22;;;9.55;59.74
9225;BME280;4647;48.072;11.616;2024-02-26T10:16:25;93675.69;;;9.47;59.43
9225;BME280;4647;48.072;11.616;2024-02-26T10:18:53;93669.28;;;9.32;60.22
9225;BME280;4647;48.072;11.616;2024-02-26T10:21:22;93676.22;;;9.42;58.99
9225;BME280;4647;48.072;11.616;2024-02-26T10:23:51;93666.75;;;9.37;59.27
9225;BME280;4647;48.072;11.616;2024-02-26T10:26:20;93670.13;;;9.72;59.41
9225;BME280;4647;48.072;11.616;2024-02-26T10:28:49;93662.56;;;9.67;58.55
9225;BME280;4647;48.072;11.616;2024-02-26T10:31:20;93659.81;;;9.58;58.55
9225;BME280;4647;48.072;11.616;2024-02-26T10:33:48;93654.16;;;9.65;58.20
9225;BME280;4647;48.072;11.616;2024-02-26T10:36:17;93657.06;;;9.49;58.87
9225;BME280;4647;48.072;11.616;2024-02-26T10:38:45;93654.47;;;9.45;58.62
9225;BME280;4647;48.072;11.616;2024-02-26T10:41:14;93647.94;;;9.56;57.47
9225;BME280;4647;48.072;11.616;2024-02-26T10:43:43;93642.44;;;9.68;57.59
9225;BME280;4647;48.072;11.616;2024-02-26T10:46:11;93647.34;;;9.92;57.22
9225;BME280;4647;48.072;11.616;2024-02-26T10:48:49;93657.22;;;10.16;56.22
9225;BME280;4647;48.072;11.616;2024-02-26T10:51:21;93659.69;;;10.24;56.07
9225;BME280;4647;48.072;11.616;2024-02-26T10:53:55;93654.75;;;10.40;55.83
9225;BME280;4647;48.072;11.616;2024-02-26T10:56:26;93673.19;;;10.73;54.43
9225;BME280;4647;48.072;11.616;2024-02-26T10:58:55;93662.63;;;10.57;55.53
9225;BME280;4647;48.072;11.616;2024-02-26T11:01:27;93676.53;;;10.95;54.38
9225;BME280;4647;48.072;11.616;2024-02-26T11:03:59;93683.31;;;11.36;53.55
9225;BME280;4647;48.072;11.616;2024-02-26T11:06:28;93684.75;;;11.56;52.45
9225;BME280;4647;48.072;11.616;2024-02-26T11:09:00;93687.78;;;11.85;52.64
9225;BME280;4647;48.072;11.616;2024-02-26T11:11:29;93697.38;;;11.77;52.52
9225;BME280;4647;48.072;11.616;2024-02-26T11:14:01;93688.09;;;12.20;51.76
9225;BME280;4647;48.072;11.616;2024-02-26T11:16:34;93692.75;;;11.87;51.42
9225;BME280;4647;48.072;11.616;2024-02-26T11:19:06;93683.06;;;11.77;51.83
9225;BME280;4647;48.072;11.616;2024-02-26T11:21:37;93681.91;;;11.68;51.81
9225;BME280;4647;48.072;11.616;2024-02-26T11:24:10;93695.03;;;11.61;52.27
9225;BME280;4647;48.072;11.616;2024-02-26T11:26:43;93698.19;;;11.50;53.15
9225;BME280;4647;48.072;11.616;2024-02-26T11:29:15;93706.91;;;11.73;52.72
9225;BME280;4647;48.072;11.616;2024-02-26T11:31:46;93703.84;;;11.98;52.49
9225;BME280;4647;48.072;11.616;2024-02-26T11:34:17;93704.06;;;12.27;51.32
9225;BME280;4647;48.072;11.616;2024-02-26T11:36:46;93689.00;;;12.83;51.01
9225;BME280;4647;48.072;11.616;2024-02-26T11:39:15;93680.88;;;12.98;50.42
9225;BME280;4647;48.072;11.616;2024-02-26T11:41:43;93684.72;;;12.91;51.06
9225;BME280;4647;48.072;11.616;2024-02-26T11:44:12;93687.78;;;13.08;50.83
9225;BME280;4647;48.072;11.616;2024-02-26T11:46:41;93676.66;;;12.97;50.03
9225;BME280;4647;48.072;11.616;2024-02-26T11:49:36;93682.28;;;12.94;49.86
9225;BME280;4647;48.072;11.616;2024-02-26T11:52:06;93671.22;;;13.21;48.74
9225;BME280;4647;48.072;11.616;2024-02-26T11:54:48;93672.13;;;12.79;49.47
9225;BME280;4647;48.072;11.616;2024-02-26T11:57:25;93674.66;;;12.59;50.16
9225;BME280;4647;48.072;11.616;2024-02-26T11:59:54;93660.19;;;12.53;49.46
9225;BME280;4647;48.072;11.616;2024-02-26T12:02:39;93670.88;;;12.33;49.43
9225;BME280;4647;48.072;11.616;2024-02-26T12:05:13;93673.31;;;12.21;50.07
9225;BME280;4647;48.072;11.616;2024-02-26T12:07:44;93668.88;;;12.66;49.72
9225;BME280;4647;48.072;11.616;2024-02-26T12:10:24;93667.38;;;12.65;48.93
9225;BME280;4647;48.072;11.616;2024-02-26T12:12:53;93663.78;;;12.59;48.97
9225;BME280;4647;48.072;11.616;2024-02-26T12:15:23;93663.38;;;12.18;49.09
9225;BME280;4647;48.072;11.616;2024-02-26T12:17:52;93656.91;;;12.16;50.18
9225;BME280;4647;48.072;11.616;2024-02-26T12:20:23;93653.56;;;11.79;51.60
9225;BME280;4647;48.072;11.616;2024-02-26T12:22:52;93658.19;;;11.96;50.83
9225;BME280;4647;48.072;11.616;2024-02-26T12:25:24;93653.91;;;12.05;50.41
9225;BME280;4647;48.072;11.616;2024-02-26T12:27:53;93661.69;;;11.88;50.12
9225;BME280;4647;48.072;11.616;2024-02-26T12:30:22;93666.19;;;11.91;49.09
9225;BME280;4647;48.072;11.616;2024-02-26T12:32:51;93679.41;;;12.07;48.89
9225;BME280;4647;48.072;11.616;2024-02-26T12:35:25;93688.44;;;12.13;48.12
9225;BME280;4647;48.072;11.616;2024-02-26T12:37:58;93695.63;;;12.25;47.54
9225;BME280;4647;48.072;11.616;2024-02-26T12:40:29;93700.44;;;12.31;47.41
9225;BME280;4647;48.072;11.616;2024-02-26T12:42:57;93700.78;;;12.14;47.85
9225;BME280;4647;48.072;11.616;2024-02-26T12:45:27;93703.22;;;12.03;47.72
9225;BME280;4647;48.072;11.616;2024-02-26T12:47:55;93705.22;;;11.75;46.60
9225;BME280;4647;48.072;11.616;2024-02-26T12:50:27;93697.72;;;11.70;47.47
9225;BME280;4647;48.072;11.616;2024-02-26T12:52:58;93694.41;;;11.84;47.64
9225;BME280;4647;48.072;11.616;2024-02-26T12:55:27;93695.13;;;11.94;48.05
9225;BME280;4647;48.072;11.616;2024-02-26T12:57:57;93699.00;;;12.44;48.17
9225;BME280;4647;48.072;11.616;2024-02-26T13:00:27;93702.44;;;12.54;47.91
9225;BME280;4647;48.072;11.616;2024-02-26T13:02:56;93710.59;;;12.54;46.50
9225;BME280;4647;48.072;11.616;2024-02-26T13:05:28;93705.63;;;12.76;46.75
9225;BME280;4647;48.072;11.616;2024-02-26T13:07:56;93714.78;;;13.12;45.48
9225;BME280;4647;48.072;11.616;2024-02-26T13:10:25;93709.28;;;12.97;44.65
9225;BME280;4647;48.072;11.616;2024-02-26T13:12:53;93704.19;;;12.66;44.73
9225;BME280;4647;48.072;11.616;2024-02-26T13:15:22;93707.81;;;12.63;45.58
9225;BME280;4647;48.072;11.616;2024-02-26T13:17:50;93706.56;;;12.07;45.45
9225;BME280;4647;48.072;11.616;2024-02-26T13:20:30;93697.28;;;12.23;47.11
9225;BME280;4647;48.072;11.616;2024-02-26T13:23:00;93700.50;;;12.45;46.71
9225;BME280;4647;48.072;11.616;2024-02-26T13:25:30;93700.97;;;12.44;46.76
9225;BME280;4647;48.072;11.616;2024-02-26T13:28:06;93705.66;;;12.10;49.35
9225;BME280;4647;48.072;11.616;2024-02-26T13:30:35;93709.81;;;12.20;50.98